Maersk Vallvik — 9V8839 — position and weather

sailwx.info

Track history (hours):
 
Tides and Currents Weather Stations Pressure Air Temp Water Temp Dewpoint Dewpoint Depression Visibility Wind Speed Wind Dir Waves Ship Positions

Maersk Vallvik

Last reported at 2015-Jun-28 18:21 UTC. Time now 2015-Jun-30 21:27 UTC.
Position N 25°60' W 077°47'.

Length 180 m; draft 9.6 m.

Type: Ship. MMSI: 564837000.

Date/timePositionNaut miles runAvg speedWind from/ knotsBaromVisibWave heightAir tempDewpointWater temp
2015-Jun-28 18:21N 25°60' W 077°47'62 3.5
2015-Jun-28 00:24N 26°29' W 078°48'322 7.6
2015-Jun-26 06:14N 31°50' W 079°22'6 9.5
2015-Jun-26 05:34N 31°57' W 079°22'1010.4
2015-Jun-26 04:34N 32°07' W 079°22'1510.7
2015-Jun-26 03:11N 32°22' W 079°25'5 2.9
2015-Jun-26 01:21N 32°25' W 079°29'169 6.1
2015-Jun-24 21:30N 33°52' W 076°36'1614.8
2015-Jun-24 20:24N 34°01' W 076°20'1415.1
2015-Jun-24 19:27N 34°10' W 076°07'4915.2
2015-Jun-24 16:14N 34°46' W 075°27'1013.7
2015-Jun-24 15:30N 34°54' W 075°18'4 4.5
2015-Jun-24 14:32N 34°56' W 075°14'11 9.7
2015-Jun-24 13:24N 35°04' W 075°05'261 6.2
2015-Jun-22 19:31N 39°15' W 076°33'1 0.9
2015-Jun-22 18:33N 39°15' W 076°32'8 7.5
2015-Jun-22 17:33N 39°10' W 076°25'1615.4
2015-Jun-22 16:30N 38°53' W 076°24'4217.1
2015-Jun-22 14:04N 38°12' W 076°15'1617.5
2015-Jun-22 13:10N 37°57' W 076°11'1117.0
2015-Jun-22 12:33N 37°46' W 076°10'1715.9
2015-Jun-22 11:27N 37°30' W 076°03'13810.7
2015-Jun-21 22:33N 39°14' W 074°07'1817.7
2015-Jun-21 21:33N 39°30' W 073°59'1817.7
2015-Jun-21 20:33N 39°47' W 073°51'2417.9
2015-Jun-21 19:12N 40°11' W 073°50'1218.0
2015-Jun-21 18:33N 40°23' W 073°49'1312.9
2015-Jun-21 17:33N 40°32' W 074°01'9 9.1
2015-Jun-21 16:33N 40°38' W 074°09'3 2.7
2015-Jun-21 15:33N 40°41' W 074°09'0 0.0
2015-Jun-21 14:32N 40°41' W 074°09'0 0.0
2015-Jun-21 13:31N 40°41' W 074°09'0 0.0
2015-Jun-21 12:31N 40°41' W 074°09'0 0.0
2015-Jun-21 11:32N 40°41' W 074°09'0 0.0
2015-Jun-21 10:31N 40°41' W 074°09'0 0.0
2015-Jun-21 09:32N 40°41' W 074°09'0 0.0
2015-Jun-21 08:31N 40°41' W 074°09'0 0.0
2015-Jun-21 07:31N 40°41' W 074°09'0 0.0
2015-Jun-21 06:32N 40°41' W 074°09'0 0.0
2015-Jun-21 05:31N 40°41' W 074°09'0 0.0
2015-Jun-21 04:31N 40°41' W 074°09'0 0.0
2015-Jun-21 03:32N 40°41' W 074°09'0 0.0
2015-Jun-21 02:31N 40°41' W 074°09'0 0.0
2015-Jun-21 01:31N 40°41' W 074°09'0 0.0
2015-Jun-21 00:31N 40°41' W 074°09'0 0.0
2015-Jun-20 23:31N 40°41' W 074°09'0 0.0
2015-Jun-20 22:28N 40°41' W 074°09'0 0.0
2015-Jun-20 21:31N 40°41' W 074°09'0 0.0
2015-Jun-20 20:31N 40°41' W 074°09'0 0.0
2015-Jun-20 19:31N 40°41' W 074°09'0 0.0
2015-Jun-20 18:31N 40°41' W 074°09'0 0.0
2015-Jun-20 17:28N 40°41' W 074°09'0 0.0
2015-Jun-20 16:31N 40°41' W 074°09'0 0.0
2015-Jun-20 15:32N 40°41' W 074°09'0 0.0
2015-Jun-20 14:32N 40°41' W 074°09'0 0.0
2015-Jun-20 13:31N 40°41' W 074°09'2 2.6
2015-Jun-20 12:33N 40°39' W 074°09'7 7.1
2015-Jun-20 11:33N 40°34' W 074°02'1312.6
2015-Jun-20 10:33N 40°27' W 073°48'1110.9
2015-Jun-20 09:33N 40°21' W 073°37'1717.2
2015-Jun-20 08:34N 40°11' W 073°18'1717.1
2015-Jun-20 07:33N 40°03' W 072°59'3517.3
2015-Jun-20 05:33N 39°47' W 072°18'1717.4
2015-Jun-20 04:33N 39°39' W 071°58'1716.8
2015-Jun-20 03:32N 39°31' W 071°38'1616.8
2015-Jun-20 02:33N 39°23' W 071°20'1717.1
2015-Jun-20 01:33N 39°15' W 070°60'1817.6
2015-Jun-20 00:32N 39°06' W 070°40'1817.3
2015-Jun-19 23:31N 38°58' W 070°20'1717.5
2015-Jun-19 22:33N 38°50' W 070°01'  
Track history (hours):
 
Tides and Currents Weather Stations Pressure Air Temp Water Temp Dewpoint Dewpoint Depression Visibility Wind Speed Wind Dir Waves Ship Positions

Maersk Vallvik

Last reported at 2015-Jun-28 18:21 UTC. Time now 2015-Jun-30 21:27 UTC.
Position N 25°60' W 077°47'.

Length 180 m; draft 9.6 m.

Type: Ship. MMSI: 564837000.

Date/timePositionNaut miles runAvg speedWind from/ knotsBaromVisibWave heightAir tempDewpointWater temp
2015-Jun-28 18:21N 25°60' W 077°47'62 3.5
2015-Jun-28 00:24N 26°29' W 078°48'322 7.6
2015-Jun-26 06:14N 31°50' W 079°22'6 9.5
2015-Jun-26 05:34N 31°57' W 079°22'1010.4
2015-Jun-26 04:34N 32°07' W 079°22'1510.7
2015-Jun-26 03:11N 32°22' W 079°25'5 2.9
2015-Jun-26 01:21N 32°25' W 079°29'169 6.1
2015-Jun-24 21:30N 33°52' W 076°36'1614.8
2015-Jun-24 20:24N 34°01' W 076°20'1415.1
2015-Jun-24 19:27N 34°10' W 076°07'4915.2
2015-Jun-24 16:14N 34°46' W 075°27'1013.7
2015-Jun-24 15:30N 34°54' W 075°18'4 4.5
2015-Jun-24 14:32N 34°56' W 075°14'11 9.7
2015-Jun-24 13:24N 35°04' W 075°05'261 6.2
2015-Jun-22 19:31N 39°15' W 076°33'1 0.9
2015-Jun-22 18:33N 39°15' W 076°32'8 7.5
2015-Jun-22 17:33N 39°10' W 076°25'1615.4
2015-Jun-22 16:30N 38°53' W 076°24'4217.1
2015-Jun-22 14:04N 38°12' W 076°15'1617.5
2015-Jun-22 13:10N 37°57' W 076°11'1117.0
2015-Jun-22 12:33N 37°46' W 076°10'1715.9
2015-Jun-22 11:27N 37°30' W 076°03'13810.7
2015-Jun-21 22:33N 39°14' W 074°07'1817.7
2015-Jun-21 21:33N 39°30' W 073°59'1817.7
2015-Jun-21 20:33N 39°47' W 073°51'2417.9
2015-Jun-21 19:12N 40°11' W 073°50'1218.0
2015-Jun-21 18:33N 40°23' W 073°49'1312.9
2015-Jun-21 17:33N 40°32' W 074°01'9 9.1
2015-Jun-21 16:33N 40°38' W 074°09'3 2.7
2015-Jun-21 15:33N 40°41' W 074°09'0 0.0
2015-Jun-21 14:32N 40°41' W 074°09'0 0.0
2015-Jun-21 13:31N 40°41' W 074°09'0 0.0
2015-Jun-21 12:31N 40°41' W 074°09'0 0.0
2015-Jun-21 11:32N 40°41' W 074°09'0 0.0
2015-Jun-21 10:31N 40°41' W 074°09'0 0.0
2015-Jun-21 09:32N 40°41' W 074°09'0 0.0
2015-Jun-21 08:31N 40°41' W 074°09'0 0.0
2015-Jun-21 07:31N 40°41' W 074°09'0 0.0
2015-Jun-21 06:32N 40°41' W 074°09'0 0.0
2015-Jun-21 05:31N 40°41' W 074°09'0 0.0
2015-Jun-21 04:31N 40°41' W 074°09'0 0.0
2015-Jun-21 03:32N 40°41' W 074°09'0 0.0
2015-Jun-21 02:31N 40°41' W 074°09'0 0.0
2015-Jun-21 01:31N 40°41' W 074°09'0 0.0
2015-Jun-21 00:31N 40°41' W 074°09'0 0.0
2015-Jun-20 23:31N 40°41' W 074°09'0 0.0
2015-Jun-20 22:28N 40°41' W 074°09'0 0.0
2015-Jun-20 21:31N 40°41' W 074°09'0 0.0
2015-Jun-20 20:31N 40°41' W 074°09'0 0.0
2015-Jun-20 19:31N 40°41' W 074°09'0 0.0
2015-Jun-20 18:31N 40°41' W 074°09'0 0.0
2015-Jun-20 17:28N 40°41' W 074°09'0 0.0
2015-Jun-20 16:31N 40°41' W 074°09'0 0.0
2015-Jun-20 15:32N 40°41' W 074°09'0 0.0
2015-Jun-20 14:32N 40°41' W 074°09'0 0.0
2015-Jun-20 13:31N 40°41' W 074°09'2 2.6
2015-Jun-20 12:33N 40°39' W 074°09'7 7.1
2015-Jun-20 11:33N 40°34' W 074°02'1312.6
2015-Jun-20 10:33N 40°27' W 073°48'1110.9
2015-Jun-20 09:33N 40°21' W 073°37'1717.2
2015-Jun-20 08:34N 40°11' W 073°18'1717.1
2015-Jun-20 07:33N 40°03' W 072°59'3517.3
2015-Jun-20 05:33N 39°47' W 072°18'1717.4
2015-Jun-20 04:33N 39°39' W 071°58'1716.8
2015-Jun-20 03:32N 39°31' W 071°38'1616.8
2015-Jun-20 02:33N 39°23' W 071°20'1717.1
2015-Jun-20 01:33N 39°15' W 070°60'1817.6
2015-Jun-20 00:32N 39°06' W 070°40'1817.3
2015-Jun-19 23:31N 38°58' W 070°20'1717.5
2015-Jun-19 22:33N 38°50' W 070°01'  

Dump ship's entire track history